sensor_id;sensor_type;location;lat;lon;timestamp;pressure;altitude;pressure_sealevel;temperature;humidity
58092;BME280;43896;48.178;11.578;2023-04-12T00:01:45;95490.91;;;7.06;63.52
58092;BME280;43896;48.178;11.578;2023-04-12T00:04:10;95483.38;;;7.48;62.91
58092;BME280;43896;48.178;11.578;2023-04-12T00:06:38;95481.09;;;7.08;63.28
58092;BME280;43896;48.178;11.578;2023-04-12T00:09:04;95478.03;;;6.94;64.53
58092;BME280;43896;48.178;11.578;2023-04-12T00:11:30;95385.03;;;6.27;64.44
58092;BME280;43896;48.178;11.578;2023-04-12T00:13:56;95390.28;;;6.54;63.38
58092;BME280;43896;48.178;11.578;2023-04-12T00:16:21;95337.84;;;6.66;62.33
58092;BME280;43896;48.178;11.578;2023-04-12T00:18:47;95466.56;;;8.05;60.71
58092;BME280;43896;48.178;11.578;2023-04-12T00:21:13;95421.50;;;8.01;59.50
58092;BME280;43896;48.178;11.578;2023-04-12T00:23:41;95340.31;;;7.75;58.83
58092;BME280;43896;48.178;11.578;2023-04-12T00:26:08;95432.72;;;7.94;60.22
58092;BME280;43896;48.178;11.578;2023-04-12T00:28:34;95399.28;;;6.98;62.80
58092;BME280;43896;48.178;11.578;2023-04-12T00:30:59;95358.31;;;6.98;61.77
58092;BME280;43896;48.178;11.578;2023-04-12T00:33:25;95452.28;;;7.81;61.27
58092;BME280;43896;48.178;11.578;2023-04-12T00:35:50;95394.53;;;8.09;59.23
58092;BME280;43896;48.178;11.578;2023-04-12T00:38:16;95375.03;;;8.30;58.31
58092;BME280;43896;48.178;11.578;2023-04-12T00:40:41;95435.75;;;8.77;57.67
58092;BME280;43896;48.178;11.578;2023-04-12T00:43:07;95411.03;;;8.27;57.86
58092;BME280;43896;48.178;11.578;2023-04-12T00:45:35;95426.13;;;8.52;57.89
58092;BME280;43896;48.178;11.578;2023-04-12T00:48:03;95289.53;;;7.94;56.97
58092;BME280;43896;48.178;11.578;2023-04-12T00:50:29;95361.72;;;8.49;56.37
58092;BME280;43896;48.178;11.578;2023-04-12T00:52:55;95409.06;;;8.82;56.40
58092;BME280;43896;48.178;11.578;2023-04-12T00:55:22;95354.38;;;8.53;56.60
58092;BME280;43896;48.178;11.578;2023-04-12T00:57:48;95341.63;;;8.58;55.78
58092;BME280;43896;48.178;11.578;2023-04-12T01:00:13;95416.72;;;9.10;55.42
58092;BME280;43896;48.178;11.578;2023-04-12T01:02:42;95390.59;;;8.05;58.21
58092;BME280;43896;48.178;11.578;2023-04-12T01:05:11;95394.28;;;7.94;58.37
58092;BME280;43896;48.178;11.578;2023-04-12T01:15:31;95324.81;;;7.20;59.57
58092;BME280;43896;48.178;11.578;2023-04-12T01:18:04;95352.56;;;7.48;59.76
58092;BME280;43896;48.178;11.578;2023-04-12T01:20:36;95320.00;;;7.69;58.34
58092;BME280;43896;48.178;11.578;2023-04-12T01:28:19;95300.06;;;8.37;55.75
58092;BME280;43896;48.178;11.578;2023-04-12T01:30:49;95295.16;;;8.42;55.10
58092;BME280;43896;48.178;11.578;2023-04-12T01:33:16;95342.09;;;8.53;55.69
58092;BME280;43896;48.178;11.578;2023-04-12T01:35:43;95302.53;;;8.38;55.90
58092;BME280;43896;48.178;11.578;2023-04-12T01:38:08;95311.56;;;7.83;57.98
58092;BME280;43896;48.178;11.578;2023-04-12T01:40:35;95328.09;;;8.10;57.46
58092;BME280;43896;48.178;11.578;2023-04-12T01:43:05;95313.13;;;7.24;60.03
58092;BME280;43896;48.178;11.578;2023-04-12T01:45:30;95386.16;;;8.50;57.85
58092;BME280;43896;48.178;11.578;2023-04-12T01:47:56;95284.50;;;8.01;56.78
58092;BME280;43896;48.178;11.578;2023-04-12T01:50:29;95359.41;;;8.20;58.57
58092;BME280;43896;48.178;11.578;2023-04-12T01:53:09;95356.22;;;8.60;57.56
58092;BME280;43896;48.178;11.578;2023-04-12T01:55:37;95321.31;;;8.60;57.81
58092;BME280;43896;48.178;11.578;2023-04-12T01:58:04;95240.41;;;8.22;57.24
58092;BME280;43896;48.178;11.578;2023-04-12T02:00:31;95345.31;;;8.73;58.57
58092;BME280;43896;48.178;11.578;2023-04-12T02:02:58;95249.53;;;8.10;58.58
58092;BME280;43896;48.178;11.578;2023-04-12T02:05:24;95389.47;;;9.03;60.22
58092;BME280;43896;48.178;11.578;2023-04-12T02:07:50;95299.97;;;8.47;60.14
58092;BME280;43896;48.178;11.578;2023-04-12T02:10:15;95333.66;;;8.76;60.47
58092;BME280;43896;48.178;11.578;2023-04-12T02:12:51;95350.56;;;8.90;60.89
58092;BME280;43896;48.178;11.578;2023-04-12T02:15:18;95255.50;;;8.29;60.95
58092;BME280;43896;48.178;11.578;2023-04-12T02:17:45;95365.53;;;8.97;60.61
58092;BME280;43896;48.178;11.578;2023-04-12T02:20:11;95278.31;;;8.02;61.61
58092;BME280;43896;48.178;11.578;2023-04-12T02:22:36;95260.31;;;8.07;61.81
58092;BME280;43896;48.178;11.578;2023-04-12T02:25:03;95390.53;;;8.83;61.69
58092;BME280;43896;48.178;11.578;2023-04-12T02:27:30;95273.47;;;8.15;61.79
58092;BME280;43896;48.178;11.578;2023-04-12T02:29:55;95370.53;;;8.74;61.95
58092;BME280;43896;48.178;11.578;2023-04-12T02:32:22;95380.69;;;8.77;62.84
58092;BME280;43896;48.178;11.578;2023-04-12T02:34:48;95265.81;;;7.96;63.34
58092;BME280;43896;48.178;11.578;2023-04-12T02:37:15;95267.94;;;7.92;63.20
58092;BME280;43896;48.178;11.578;2023-04-12T02:39:41;95311.25;;;8.13;63.43
58092;BME280;43896;48.178;11.578;2023-04-12T02:42:08;95294.16;;;8.00;63.09
58092;BME280;43896;48.178;11.578;2023-04-12T02:44:33;95371.91;;;8.52;64.17
58092;BME280;43896;48.178;11.578;2023-04-12T02:46:59;95280.72;;;7.95;64.57
58092;BME280;43896;48.178;11.578;2023-04-12T02:49:24;95330.00;;;8.26;64.72
58092;BME280;43896;48.178;11.578;2023-04-12T02:51:59;95300.41;;;8.07;64.89
58092;BME280;43896;48.178;11.578;2023-04-12T02:54:26;95340.91;;;8.21;65.37
58092;BME280;43896;48.178;11.578;2023-04-12T02:56:51;95295.81;;;7.75;65.17
58092;BME280;43896;48.178;11.578;2023-04-12T02:59:17;95264.38;;;7.67;64.70
58092;BME280;43896;48.178;11.578;2023-04-12T03:01:42;95366.31;;;8.47;65.62
58092;BME280;43896;48.178;11.578;2023-04-12T03:04:10;95311.03;;;7.98;66.61
58092;BME280;43896;48.178;11.578;2023-04-12T03:06:35;95311.41;;;8.11;65.79
58092;BME280;43896;48.178;11.578;2023-04-12T03:09:01;95314.81;;;8.03;66.24
58092;BME280;43896;48.178;11.578;2023-04-12T03:11:26;95258.41;;;7.83;66.26
58092;BME280;43896;48.178;11.578;2023-04-12T03:13:51;95243.78;;;7.72;66.09
58092;BME280;43896;48.178;11.578;2023-04-12T03:16:22;95333.75;;;8.23;67.23
58092;BME280;43896;48.178;11.578;2023-04-12T03:18:48;95267.72;;;7.77;67.33
58092;BME280;43896;48.178;11.578;2023-04-12T03:21:15;95317.25;;;7.53;69.09
58092;BME280;43896;48.178;11.578;2023-04-12T03:23:41;95351.50;;;7.85;69.96
58092;BME280;43896;48.178;11.578;2023-04-12T03:26:06;95321.41;;;7.19;70.84
58092;BME280;43896;48.178;11.578;2023-04-12T03:28:31;95299.59;;;7.55;69.95
58092;BME280;43896;48.178;11.578;2023-04-12T03:30:57;95281.03;;;7.66;69.58
58092;BME280;43896;48.178;11.578;2023-04-12T03:33:23;95265.09;;;7.77;68.10
58092;BME280;43896;48.178;11.578;2023-04-12T03:35:48;95310.59;;;7.58;70.31
58092;BME280;43896;48.178;11.578;2023-04-12T03:38:14;95262.41;;;7.43;69.95
58092;BME280;43896;48.178;11.578;2023-04-12T03:40:39;95256.00;;;7.63;68.79
58092;BME280;43896;48.178;11.578;2023-04-12T03:43:05;95265.81;;;7.87;67.92
58092;BME280;43896;48.178;11.578;2023-04-12T03:45:31;95327.81;;;8.21;68.01
58092;BME280;43896;48.178;11.578;2023-04-12T03:47:56;95283.00;;;7.64;69.15
58092;BME280;43896;48.178;11.578;2023-04-12T03:50:21;95218.13;;;7.49;68.17
58092;BME280;43896;48.178;11.578;2023-04-12T03:52:47;95206.97;;;7.39;68.43
58092;BME280;43896;48.178;11.578;2023-04-12T03:55:12;95239.16;;;7.66;68.45
58092;BME280;43896;48.178;11.578;2023-04-12T03:57:42;95302.44;;;7.61;70.13
58092;BME280;43896;48.178;11.578;2023-04-12T04:00:07;95258.88;;;7.52;69.49
58092;BME280;43896;48.178;11.578;2023-04-12T04:02:34;95300.94;;;7.59;70.58
58092;BME280;43896;48.178;11.578;2023-04-12T04:04:59;95216.78;;;6.57;73.15
58092;BME280;43896;48.178;11.578;2023-04-12T04:07:26;95196.44;;;6.51;70.73
58092;BME280;43896;48.178;11.578;2023-04-12T04:09:53;95180.63;;;6.70;71.12
58092;BME280;43896;48.178;11.578;2023-04-12T04:12:18;95306.50;;;6.66;74.28
58092;BME280;43896;48.178;11.578;2023-04-12T04:14:44;95300.53;;;7.45;72.25
58092;BME280;43896;48.178;11.578;2023-04-12T04:17:09;95267.88;;;6.60;73.83
58092;BME280;43896;48.178;11.578;2023-04-12T04:19:35;95282.38;;;6.54;75.07
58092;BME280;43896;48.178;11.578;2023-04-12T04:22:00;95186.47;;;6.00;74.53
58092;BME280;43896;48.178;11.578;2023-04-12T04:24:26;95215.63;;;6.60;73.25
58092;BME280;43896;48.178;11.578;2023-04-12T04:26:51;95211.91;;;5.98;74.54
58092;BME280;43896;48.178;11.578;2023-04-12T04:29:18;95236.34;;;5.88;77.71
58092;BME280;43896;48.178;11.578;2023-04-12T04:31:44;95292.97;;;6.52;75.62
58092;BME280;43896;48.178;11.578;2023-04-12T04:34:10;95202.34;;;6.71;72.71
58092;BME280;43896;48.178;11.578;2023-04-12T04:36:36;95251.81;;;6.36;74.90
58092;BME280;43896;48.178;11.578;2023-04-12T04:39:02;95271.56;;;7.03;74.25
58092;BME280;43896;48.178;11.578;2023-04-12T04:41:29;95200.19;;;6.84;74.48
58092;BME280;43896;48.178;11.578;2023-04-12T04:44:01;95202.44;;;7.23;72.45
58092;BME280;43896;48.178;11.578;2023-04-12T04:46:28;95277.34;;;7.50;72.47
58092;BME280;43896;48.178;11.578;2023-04-12T04:48:55;95257.59;;;6.76;75.41
58092;BME280;43896;48.178;11.578;2023-04-12T04:51:20;95221.72;;;7.22;73.05
58092;BME280;43896;48.178;11.578;2023-04-12T04:53:46;95259.84;;;7.77;71.87
58092;BME280;43896;48.178;11.578;2023-04-12T04:56:11;95265.84;;;7.69;72.46
58092;BME280;43896;48.178;11.578;2023-04-12T04:58:37;95237.97;;;6.72;74.16
58092;BME280;43896;48.178;11.578;2023-04-12T05:01:03;95231.78;;;6.73;74.73
58092;BME280;43896;48.178;11.578;2023-04-12T05:03:29;95231.69;;;7.01;73.36
58092;BME280;43896;48.178;11.578;2023-04-12T05:05:55;95249.88;;;6.38;76.77
58092;BME280;43896;48.178;11.578;2023-04-12T05:08:21;95232.19;;;6.05;78.11
58092;BME280;43896;48.178;11.578;2023-04-12T05:10:50;95256.41;;;5.97;78.73
58092;BME280;43896;48.178;11.578;2023-04-12T05:13:16;95254.44;;;6.09;76.91
58092;BME280;43896;48.178;11.578;2023-04-12T05:15:41;95225.78;;;6.63;75.51
58092;BME280;43896;48.178;11.578;2023-04-12T05:18:06;95219.16;;;6.50;75.65
58092;BME280;43896;48.178;11.578;2023-04-12T05:20:32;95234.91;;;6.13;77.78
58092;BME280;43896;48.178;11.578;2023-04-12T05:22:57;95239.06;;;6.06;78.88
58092;BME280;43896;48.178;11.578;2023-04-12T05:25:22;95230.72;;;5.92;78.07
58092;BME280;43896;48.178;11.578;2023-04-12T05:27:47;95217.00;;;5.90;78.98
58092;BME280;43896;48.178;11.578;2023-04-12T05:30:13;95206.38;;;6.01;79.49
58092;BME280;43896;48.178;11.578;2023-04-12T05:32:38;95204.38;;;5.86;78.74
58092;BME280;43896;48.178;11.578;2023-04-12T05:35:04;95218.75;;;5.99;78.93
58092;BME280;43896;48.178;11.578;2023-04-12T05:37:29;95204.31;;;5.95;77.95
58092;BME280;43896;48.178;11.578;2023-04-12T05:39:55;95196.97;;;6.36;76.08
58092;BME280;43896;48.178;11.578;2023-04-12T05:42:20;95181.31;;;5.81;77.78
58092;BME280;43896;48.178;11.578;2023-04-12T05:44:45;95209.69;;;5.94;77.71
58092;BME280;43896;48.178;11.578;2023-04-12T05:47:12;95185.00;;;5.88;77.92
58092;BME280;43896;48.178;11.578;2023-04-12T05:49:38;95166.34;;;5.83;78.53
58092;BME280;43896;48.178;11.578;2023-04-12T05:52:04;95188.28;;;6.00;78.93
58092;BME280;43896;48.178;11.578;2023-04-12T05:54:30;95189.72;;;6.30;77.98
58092;BME280;43896;48.178;11.578;2023-04-12T05:56:55;95182.13;;;6.19;77.10
58092;BME280;43896;48.178;11.578;2023-04-12T05:59:21;95163.94;;;5.99;77.42
58092;BME280;43896;48.178;11.578;2023-04-12T06:01:47;95187.88;;;6.41;77.25
58092;BME280;43896;48.178;11.578;2023-04-12T06:04:13;95142.19;;;6.63;75.70
58092;BME280;43896;48.178;11.578;2023-04-12T06:06:39;95170.78;;;6.46;77.08
58092;BME280;43896;48.178;11.578;2023-04-12T06:09:04;95178.28;;;6.13;79.77
58092;BME280;43896;48.178;11.578;2023-04-12T06:11:30;95145.91;;;6.06;78.15
58092;BME280;43896;48.178;11.578;2023-04-12T06:14:01;95124.25;;;5.96;78.68
58092;BME280;43896;48.178;11.578;2023-04-12T06:16:26;95146.84;;;6.33;77.28
58092;BME280;43896;48.178;11.578;2023-04-12T06:18:52;95160.09;;;6.22;77.72
58092;BME280;43896;48.178;11.578;2023-04-12T06:21:18;95160.63;;;6.25;77.85
58092;BME280;43896;48.178;11.578;2023-04-12T06:23:43;95157.47;;;6.04;76.98
58092;BME280;43896;48.178;11.578;2023-04-12T06:26:09;95162.50;;;6.33;77.05
58092;BME280;43896;48.178;11.578;2023-04-12T06:28:34;95144.56;;;6.02;78.19
58092;BME280;43896;48.178;11.578;2023-04-12T06:31:00;95153.22;;;6.20;77.57
58092;BME280;43896;48.178;11.578;2023-04-12T06:33:25;95137.50;;;6.12;78.62
58092;BME280;43896;48.178;11.578;2023-04-12T06:35:51;95154.94;;;6.48;76.82
58092;BME280;43896;48.178;11.578;2023-04-12T06:38:17;95148.75;;;6.49;76.67
58092;BME280;43896;48.178;11.578;2023-04-12T06:40:43;95125.78;;;6.16;77.81
58092;BME280;43896;48.178;11.578;2023-04-12T06:43:09;95138.03;;;6.16;78.04
58092;BME280;43896;48.178;11.578;2023-04-12T06:45:34;95135.47;;;6.60;78.07
58092;BME280;43896;48.178;11.578;2023-04-12T06:48:00;95128.91;;;7.00;76.63
58092;BME280;43896;48.178;11.578;2023-04-12T06:50:26;95114.72;;;6.41;77.35
58092;BME280;43896;48.178;11.578;2023-04-12T06:52:51;95132.69;;;6.62;77.79
58092;BME280;43896;48.178;11.578;2023-04-12T06:55:16;95123.47;;;6.67;78.33
58092;BME280;43896;48.178;11.578;2023-04-12T06:57:42;95117.59;;;6.73;77.83
58092;BME280;43896;48.178;11.578;2023-04-12T07:00:09;95093.84;;;6.41;77.86
58092;BME280;43896;48.178;11.578;2023-04-12T07:02:34;95080.34;;;6.27;78.85
58092;BME280;43896;48.178;11.578;2023-04-12T07:05:00;95110.78;;;6.81;77.79
58092;BME280;43896;48.178;11.578;2023-04-12T07:07:25;95113.00;;;6.49;79.18
58092;BME280;43896;48.178;11.578;2023-04-12T07:09:51;95066.28;;;6.64;77.65
58092;BME280;43896;48.178;11.578;2023-04-12T07:12:17;95080.03;;;6.30;78.81
58092;BME280;43896;48.178;11.578;2023-04-12T07:14:42;95093.75;;;6.50;78.56
58092;BME280;43896;48.178;11.578;2023-04-12T07:17:07;95112.34;;;7.18;76.69
58092;BME280;43896;48.178;11.578;2023-04-12T07:19:33;95077.97;;;6.78;77.46
58092;BME280;43896;48.178;11.578;2023-04-12T07:21:58;95074.19;;;6.54;78.45
58092;BME280;43896;48.178;11.578;2023-04-12T07:24:24;95085.47;;;7.07;76.94
58092;BME280;43896;48.178;11.578;2023-04-12T07:26:52;95093.78;;;6.76;78.01
58092;BME280;43896;48.178;11.578;2023-04-12T07:29:17;95092.50;;;6.81;77.94
58092;BME280;43896;48.178;11.578;2023-04-12T07:31:43;95094.59;;;6.77;78.12
58092;BME280;43896;48.178;11.578;2023-04-12T07:34:09;95073.66;;;6.69;79.68
58092;BME280;43896;48.178;11.578;2023-04-12T07:36:35;95077.13;;;7.38;76.29
58092;BME280;43896;48.178;11.578;2023-04-12T07:39:01;95070.75;;;7.32;77.72
58092;BME280;43896;48.178;11.578;2023-04-12T07:41:26;95050.00;;;7.05;78.24
58092;BME280;43896;48.178;11.578;2023-04-12T07:43:52;95086.81;;;7.11;78.91
58092;BME280;43896;48.178;11.578;2023-04-12T07:46:19;95078.69;;;6.88;80.06
58092;BME280;43896;48.178;11.578;2023-04-12T07:48:44;95063.41;;;7.02;79.02
58092;BME280;43896;48.178;11.578;2023-04-12T07:51:10;95052.69;;;6.87;81.16
58092;BME280;43896;48.178;11.578;2023-04-12T07:53:35;95045.56;;;6.97;80.40
58092;BME280;43896;48.178;11.578;2023-04-12T07:56:01;95063.91;;;7.05;79.17
58092;BME280;43896;48.178;11.578;2023-04-12T07:58:29;95039.69;;;6.95;80.02
58092;BME280;43896;48.178;11.578;2023-04-12T08:00:55;95038.16;;;6.84;80.13
58092;BME280;43896;48.178;11.578;2023-04-12T08:03:21;95047.28;;;7.14;80.07
58092;BME280;43896;48.178;11.578;2023-04-12T08:05:46;95058.44;;;7.25;80.10
58092;BME280;43896;48.178;11.578;2023-04-12T08:08:17;95051.97;;;7.45;79.11
58092;BME280;43896;48.178;11.578;2023-04-12T08:10:42;95052.38;;;7.75;78.61
58092;BME280;43896;48.178;11.578;2023-04-12T08:13:08;95028.41;;;7.29;78.78
58092;BME280;43896;48.178;11.578;2023-04-12T08:15:33;95041.78;;;7.85;78.31
58092;BME280;43896;48.178;11.578;2023-04-12T08:17:58;95031.88;;;7.46;79.10
58092;BME280;43896;48.178;11.578;2023-04-12T08:20:23;95038.13;;;7.61;79.39
58092;BME280;43896;48.178;11.578;2023-04-12T08:22:49;95003.56;;;7.33;79.86
58092;BME280;43896;48.178;11.578;2023-04-12T08:25:16;95024.31;;;8.02;77.88
58092;BME280;43896;48.178;11.578;2023-04-12T08:27:42;95030.44;;;7.51;80.01
58092;BME280;43896;48.178;11.578;2023-04-12T08:30:08;95020.59;;;7.45;79.25
58092;BME280;43896;48.178;11.578;2023-04-12T08:32:34;95010.78;;;7.47;80.33
58092;BME280;43896;48.178;11.578;2023-04-12T08:35:00;95016.34;;;7.44;82.33
58092;BME280;43896;48.178;11.578;2023-04-12T08:37:29;95022.41;;;7.45;82.22
58092;BME280;43896;48.178;11.578;2023-04-12T08:39:56;95014.03;;;7.41;80.97
58092;BME280;43896;48.178;11.578;2023-04-12T08:42:22;94999.97;;;7.34;81.41
58092;BME280;43896;48.178;11.578;2023-04-12T08:44:47;94958.59;;;7.29;81.49
58092;BME280;43896;48.178;11.578;2023-04-12T08:47:15;94926.38;;;7.21;80.80
58092;BME280;43896;48.178;11.578;2023-04-12T08:49:40;94978.97;;;7.68;82.38
58092;BME280;43896;48.178;11.578;2023-04-12T08:52:07;94978.78;;;7.70;81.87
58092;BME280;43896;48.178;11.578;2023-04-12T08:54:33;94974.53;;;7.85;80.64
58092;BME280;43896;48.178;11.578;2023-04-12T08:57:02;94967.03;;;7.82;81.79
58092;BME280;43896;48.178;11.578;2023-04-12T08:59:31;94944.09;;;7.60;81.42
58092;BME280;43896;48.178;11.578;2023-04-12T09:01:57;94963.25;;;7.77;82.36
58092;BME280;43896;48.178;11.578;2023-04-12T09:04:24;94910.56;;;7.80;82.05
58092;BME280;43896;48.178;11.578;2023-04-12T09:06:50;94923.97;;;7.77;81.45
58092;BME280;43896;48.178;11.578;2023-04-12T09:09:16;94924.31;;;7.82;81.55
58092;BME280;43896;48.178;11.578;2023-04-12T09:11:42;94928.09;;;7.79;80.84
58092;BME280;43896;48.178;11.578;2023-04-12T09:14:21;94942.00;;;7.88;80.85
58092;BME280;43896;48.178;11.578;2023-04-12T09:16:47;94911.72;;;7.77;81.49
58092;BME280;43896;48.178;11.578;2023-04-12T09:19:12;94928.19;;;8.60;80.90
58092;BME280;43896;48.178;11.578;2023-04-12T09:21:51;94944.84;;;8.75;79.16
58092;BME280;43896;48.178;11.578;2023-04-12T09:24:17;94931.44;;;9.10;78.39
58092;BME280;43896;48.178;11.578;2023-04-12T09:26:43;94911.91;;;8.73;79.26
58092;BME280;43896;48.178;11.578;2023-04-12T09:29:22;94921.75;;;8.71;80.32
58092;BME280;43896;48.178;11.578;2023-04-12T09:32:00;94917.06;;;9.29;80.02
58092;BME280;43896;48.178;11.578;2023-04-12T09:34:26;94921.84;;;9.25;77.38
58092;BME280;43896;48.178;11.578;2023-04-12T09:36:52;94913.91;;;9.65;77.98
58092;BME280;43896;48.178;11.578;2023-04-12T09:39:17;94901.47;;;10.20;74.82
58092;BME280;43896;48.178;11.578;2023-04-12T09:41:43;94896.03;;;9.60;75.47
58092;BME280;43896;48.178;11.578;2023-04-12T09:44:08;94898.31;;;9.09;75.83
58092;BME280;43896;48.178;11.578;2023-04-12T09:46:35;94896.75;;;8.99;76.80
58092;BME280;43896;48.178;11.578;2023-04-12T09:49:00;94879.22;;;8.92;76.86
58092;BME280;43896;48.178;11.578;2023-04-12T09:51:32;94893.78;;;9.03;76.81
58092;BME280;43896;48.178;11.578;2023-04-12T09:54:02;94882.19;;;9.20;77.09
58092;BME280;43896;48.178;11.578;2023-04-12T09:56:30;94873.56;;;9.34;76.94
58092;BME280;43896;48.178;11.578;2023-04-12T09:58:59;94833.81;;;9.23;77.51
58092;BME280;43896;48.178;11.578;2023-04-12T10:01:26;94868.03;;;9.75;76.69
58092;BME280;43896;48.178;11.578;2023-04-12T10:03:53;94862.06;;;10.20;75.14
58092;BME280;43896;48.178;11.578;2023-04-12T10:06:20;94857.19;;;10.76;73.95
58092;BME280;43896;48.178;11.578;2023-04-12T10:08:48;94820.19;;;10.33;73.19
58092;BME280;43896;48.178;11.578;2023-04-12T10:11:14;94856.22;;;11.35;72.77
58092;BME280;43896;48.178;11.578;2023-04-12T10:13:41;94852.75;;;11.99;70.29
58092;BME280;43896;48.178;11.578;2023-04-12T10:16:08;94845.75;;;11.42;69.20
58092;BME280;43896;48.178;11.578;2023-04-12T10:18:34;94828.00;;;11.07;68.95
58092;BME280;43896;48.178;11.578;2023-04-12T10:21:02;94809.59;;;11.29;69.43
58092;BME280;43896;48.178;11.578;2023-04-12T10:23:30;94812.91;;;11.38;69.28
58092;BME280;43896;48.178;11.578;2023-04-12T10:25:55;94823.44;;;11.81;69.30
58092;BME280;43896;48.178;11.578;2023-04-12T10:28:21;94822.75;;;12.64;64.44
58092;BME280;43896;48.178;11.578;2023-04-12T10:30:47;94801.94;;;12.41;65.01
58092;BME280;43896;48.178;11.578;2023-04-12T10:33:16;94803.81;;;12.95;65.52
58092;BME280;43896;48.178;11.578;2023-04-12T10:35:53;94786.03;;;13.37;63.13
58092;BME280;43896;48.178;11.578;2023-04-12T10:38:20;94807.63;;;13.67;62.18
58092;BME280;43896;48.178;11.578;2023-04-12T10:43:32;94801.47;;;14.27;59.98
58092;BME280;43896;48.178;11.578;2023-04-12T10:45:58;94799.88;;;13.39;60.43
58092;BME280;43896;48.178;11.578;2023-04-12T10:51:20;94789.41;;;13.04;61.78
58092;BME280;43896;48.178;11.578;2023-04-12T10:56:40;94766.50;;;12.56;63.55
58092;BME280;43896;48.178;11.578;2023-04-12T10:59:10;94755.09;;;12.43;62.03
58092;BME280;43896;48.178;11.578;2023-04-12T11:01:36;94775.31;;;12.29;63.27
58092;BME280;43896;48.178;11.578;2023-04-12T11:04:18;94754.84;;;12.37;63.01
58092;BME280;43896;48.178;11.578;2023-04-12T11:09:22;94751.44;;;13.05;60.64
58092;BME280;43896;48.178;11.578;2023-04-12T11:11:49;94759.47;;;12.77;61.51
58092;BME280;43896;48.178;11.578;2023-04-12T11:14:15;94759.47;;;12.70;60.86
58092;BME280;43896;48.178;11.578;2023-04-12T11:19:32;94744.00;;;13.42;61.10
58092;BME280;43896;48.178;11.578;2023-04-12T11:22:00;94736.78;;;12.96;61.95
58092;BME280;43896;48.178;11.578;2023-04-12T11:24:27;94747.16;;;12.84;61.20
58092;BME280;43896;48.178;11.578;2023-04-12T11:26:52;94743.63;;;12.64;62.91
58092;BME280;43896;48.178;11.578;2023-04-12T11:29:26;94746.53;;;12.89;62.08
58092;BME280;43896;48.178;11.578;2023-04-12T11:31:52;94722.31;;;12.72;61.59
58092;BME280;43896;48.178;11.578;2023-04-12T11:34:18;94711.66;;;13.00;61.06
58092;BME280;43896;48.178;11.578;2023-04-12T11:36:44;94727.44;;;12.87;62.50
58092;BME280;43896;48.178;11.578;2023-04-12T11:39:11;94727.22;;;12.75;62.61
58092;BME280;43896;48.178;11.578;2023-04-12T11:41:42;94732.75;;;13.00;63.12
58092;BME280;43896;48.178;11.578;2023-04-12T11:44:08;94706.22;;;13.48;60.53
58092;BME280;43896;48.178;11.578;2023-04-12T11:46:33;94708.38;;;12.85;62.13
58092;BME280;43896;48.178;11.578;2023-04-12T11:48:59;94724.13;;;12.65;63.24
58092;BME280;43896;48.178;11.578;2023-04-12T11:51:25;94697.22;;;12.21;63.85
58092;BME280;43896;48.178;11.578;2023-04-12T11:53:53;94710.69;;;12.53;64.38
58092;BME280;43896;48.178;11.578;2023-04-12T11:56:19;94713.19;;;12.13;63.35
58092;BME280;43896;48.178;11.578;2023-04-12T11:58:48;94703.16;;;11.95;64.33
58092;BME280;43896;48.178;11.578;2023-04-12T12:01:14;94702.72;;;11.91;64.53
58092;BME280;43896;48.178;11.578;2023-04-12T12:03:40;94713.75;;;12.08;65.08
58092;BME280;43896;48.178;11.578;2023-04-12T12:06:07;94739.16;;;12.16;64.63
58092;BME280;43896;48.178;11.578;2023-04-12T12:08:34;94708.44;;;11.95;65.48
58092;BME280;43896;48.178;11.578;2023-04-12T12:11:00;94725.53;;;12.06;65.69
58092;BME280;43896;48.178;11.578;2023-04-12T12:13:25;94717.19;;;12.02;65.72
58092;BME280;43896;48.178;11.578;2023-04-12T12:15:51;94726.88;;;12.36;66.21
58092;BME280;43896;48.178;11.578;2023-04-12T12:18:16;94721.69;;;12.63;63.08
58092;BME280;43896;48.178;11.578;2023-04-12T12:20:49;94723.34;;;12.64;63.92
58092;BME280;43896;48.178;11.578;2023-04-12T12:23:29;94721.06;;;13.36;60.11
58092;BME280;43896;48.178;11.578;2023-04-12T12:25:55;94720.53;;;12.86;62.53
58092;BME280;43896;48.178;11.578;2023-04-12T12:28:23;94705.25;;;12.61;62.89
58092;BME280;43896;48.178;11.578;2023-04-12T12:30:52;94713.78;;;12.63;63.17
58092;BME280;43896;48.178;11.578;2023-04-12T12:33:19;94718.47;;;12.68;63.86
58092;BME280;43896;48.178;11.578;2023-04-12T12:35:44;94703.84;;;12.59;64.33
58092;BME280;43896;48.178;11.578;2023-04-12T12:38:09;94719.16;;;13.03;63.10
58092;BME280;43896;48.178;11.578;2023-04-12T12:40:35;94696.25;;;13.24;62.43
58092;BME280;43896;48.178;11.578;2023-04-12T12:43:01;94704.34;;;13.16;61.85
58092;BME280;43896;48.178;11.578;2023-04-12T12:45:27;94696.84;;;13.26;63.06
58092;BME280;43896;48.178;11.578;2023-04-12T12:47:58;94692.38;;;13.66;61.52
58092;BME280;43896;48.178;11.578;2023-04-12T12:50:27;94656.44;;;13.59;61.90
58092;BME280;43896;48.178;11.578;2023-04-12T12:52:54;94664.38;;;13.39;61.84
58092;BME280;43896;48.178;11.578;2023-04-12T12:55:20;94681.59;;;13.61;60.46
58092;BME280;43896;48.178;11.578;2023-04-12T12:57:55;94690.13;;;13.23;60.89
58092;BME280;43896;48.178;11.578;2023-04-12T13:00:22;94672.47;;;13.04;61.55
58092;BME280;43896;48.178;11.578;2023-04-12T13:02:48;94678.34;;;13.06;60.39
58092;BME280;43896;48.178;11.578;2023-04-12T13:05:15;94667.34;;;12.75;60.67
58092;BME280;43896;48.178;11.578;2023-04-12T13:07:40;94669.00;;;12.90;60.72
58092;BME280;43896;48.178;11.578;2023-04-12T13:10:07;94665.56;;;12.89;61.40
58092;BME280;43896;48.178;11.578;2023-04-12T13:12:33;94669.38;;;12.73;62.05
58092;BME280;43896;48.178;11.578;2023-04-12T13:14:58;94647.72;;;13.05;60.46
58092;BME280;43896;48.178;11.578;2023-04-12T13:17:25;94630.88;;;13.39;58.93
58092;BME280;43896;48.178;11.578;2023-04-12T13:19:50;94669.00;;;13.70;58.73
58092;BME280;43896;48.178;11.578;2023-04-12T13:22:16;94659.66;;;13.74;58.71